createdAt,value
2023-11-21T00:01:18.553Z,65.24
2023-11-21T00:03:44.871Z,65.43
2023-11-21T00:06:11.043Z,65.47
2023-11-21T00:08:37.178Z,65.54
2023-11-21T00:11:03.339Z,65.34
2023-11-21T00:13:29.527Z,65.40
2023-11-21T00:15:55.716Z,65.24
2023-11-21T00:18:21.893Z,65.38
2023-11-21T00:20:48.036Z,65.12
2023-11-21T00:23:14.212Z,65.16
2023-11-21T00:25:40.414Z,65.33
2023-11-21T00:28:06.578Z,65.42
2023-11-21T00:30:32.738Z,65.19
2023-11-21T00:32:58.969Z,65.25
2023-11-21T00:35:25.289Z,65.39
2023-11-21T00:37:51.514Z,65.20
2023-11-21T00:40:17.738Z,65.41
2023-11-21T00:42:43.908Z,65.10
2023-11-21T00:45:10.039Z,65.08
2023-11-21T00:47:36.275Z,65.12
2023-11-21T00:50:02.470Z,65.22
2023-11-21T00:52:28.695Z,65.30
2023-11-21T00:54:54.970Z,65.53
2023-11-21T00:57:21.146Z,65.44
2023-11-21T00:59:47.311Z,65.44
2023-11-21T01:02:13.494Z,65.44
2023-11-21T01:04:39.774Z,65.51
2023-11-21T01:07:06.007Z,65.43
2023-11-21T01:09:32.179Z,65.46
2023-11-21T01:11:58.396Z,65.33
2023-11-21T01:14:24.559Z,65.22
2023-11-21T01:16:50.789Z,65.28
2023-11-21T01:19:17.060Z,65.37
2023-11-21T01:21:43.304Z,65.26
2023-11-21T01:24:09.470Z,65.52
2023-11-21T01:26:35.688Z,65.34
2023-11-21T01:29:01.871Z,65.53
2023-11-21T01:31:28.113Z,65.43
2023-11-21T01:33:54.357Z,65.28
2023-11-21T01:36:20.497Z,65.33
2023-11-21T01:38:46.677Z,65.50
2023-11-21T01:41:12.861Z,65.59
2023-11-21T01:43:39.055Z,65.31
2023-11-21T01:46:05.282Z,65.33
2023-11-21T01:48:31.535Z,65.30
2023-11-21T01:50:57.735Z,65.29
2023-11-21T01:53:24.065Z,65.32
2023-11-21T01:55:50.354Z,65.14
2023-11-21T01:58:16.548Z,65.79
2023-11-21T02:00:42.760Z,65.52
2023-11-21T02:03:09.044Z,65.16
2023-11-21T02:05:35.247Z,65.56
2023-11-21T02:08:01.412Z,65.54
2023-11-21T02:10:27.628Z,65.44
2023-11-21T02:12:53.893Z,65.47
2023-11-21T02:15:20.131Z,65.42
2023-11-21T02:17:46.325Z,65.33
2023-11-21T02:20:12.520Z,65.50
2023-11-21T02:22:38.726Z,65.64
2023-11-21T02:25:04.901Z,65.60
2023-11-21T02:27:31.046Z,65.53
2023-11-21T02:29:57.199Z,65.60
2023-11-21T02:32:23.343Z,65.53
2023-11-21T02:34:49.579Z,65.64
2023-11-21T02:37:15.832Z,65.35
2023-11-21T02:40:18.563Z,65.55
2023-11-21T02:42:35.241Z,65.61
2023-11-21T02:45:01.442Z,65.56
2023-11-21T02:47:27.716Z,65.45
2023-11-21T02:49:54.526Z,65.60
2023-11-21T02:52:20.779Z,65.61
2023-11-21T02:54:46.974Z,65.48
2023-11-21T02:57:13.138Z,65.61
2023-11-21T02:59:39.268Z,65.64
2023-11-21T03:02:05.479Z,65.34
2023-11-21T03:04:31.706Z,65.65
2023-11-21T03:06:57.849Z,65.39
2023-11-21T03:09:23.995Z,65.66
2023-11-21T03:11:50.168Z,65.65
2023-11-21T03:14:16.309Z,65.57
2023-11-21T03:16:42.784Z,65.86
2023-11-21T03:19:08.997Z,65.45
2023-11-21T03:21:35.128Z,65.27
2023-11-21T03:24:01.478Z,65.44
2023-11-21T03:26:28.139Z,65.67
2023-11-21T03:28:54.285Z,65.48
2023-11-21T03:31:20.500Z,65.50
2023-11-21T03:33:46.728Z,65.78
2023-11-21T03:36:12.866Z,65.50
2023-11-21T03:38:39.018Z,65.33
2023-11-21T03:41:05.176Z,65.72
2023-11-21T03:43:31.312Z,65.51
2023-11-21T03:45:58.452Z,65.32
2023-11-21T03:48:25.132Z,65.54
2023-11-21T03:50:51.293Z,65.47
2023-11-21T03:53:17.442Z,65.74
2023-11-21T03:55:43.642Z,65.52
2023-11-21T03:58:09.822Z,65.63
2023-11-21T04:00:35.961Z,65.71
2023-11-21T04:03:02.250Z,65.74
2023-11-21T04:05:28.445Z,65.52
2023-11-21T04:07:54.666Z,65.54
2023-11-21T04:10:20.873Z,65.41
2023-11-21T04:12:47.034Z,65.77
2023-11-21T04:15:13.176Z,65.72
2023-11-21T04:17:39.373Z,65.53
2023-11-21T04:20:05.562Z,65.73
2023-11-21T04:22:31.729Z,65.57
2023-11-21T04:24:57.905Z,65.75
2023-11-21T04:27:24.074Z,65.61
2023-11-21T04:29:50.249Z,65.78
2023-11-21T04:32:16.420Z,65.80
2023-11-21T04:34:42.642Z,65.83
2023-11-21T04:37:08.866Z,65.81
2023-11-21T04:39:35.052Z,65.52
2023-11-21T04:42:01.194Z,65.58
2023-11-21T04:44:27.362Z,65.61
2023-11-21T04:46:53.600Z,65.86
2023-11-21T04:49:19.861Z,65.73
2023-11-21T04:51:46.030Z,65.81
2023-11-21T04:54:12.475Z,65.61
2023-11-21T04:56:38.660Z,65.87
2023-11-21T04:59:04.825Z,65.65
2023-11-21T05:01:31.063Z,65.84
2023-11-21T05:03:57.349Z,65.52
2023-11-21T05:06:23.555Z,65.77
2023-11-21T05:08:49.727Z,65.57
2023-11-21T05:11:15.864Z,65.94
2023-11-21T05:13:42.054Z,65.73
2023-11-21T05:16:08.253Z,65.82
2023-11-21T05:18:35.847Z,65.64
2023-11-21T05:21:02.064Z,65.64
2023-11-21T05:23:28.228Z,65.66
2023-11-21T05:25:58.109Z,65.70
2023-11-21T05:28:28.636Z,65.58
2023-11-21T05:31:07.529Z,65.65
2023-11-21T05:33:40.524Z,65.65
2023-11-21T05:36:07.954Z,65.70
2023-11-21T05:38:34.098Z,65.48
2023-11-21T05:41:02.439Z,65.48
2023-11-21T05:43:28.775Z,65.85
2023-11-21T05:45:54.953Z,65.67
2023-11-21T05:48:29.511Z,65.74
2023-11-21T05:50:56.183Z,65.43
2023-11-21T05:53:22.328Z,65.51
2023-11-21T05:55:48.605Z,65.88
2023-11-21T05:58:14.992Z,65.85
2023-11-21T06:00:41.206Z,65.89
2023-11-21T06:03:08.723Z,65.83
2023-11-21T06:05:34.963Z,65.76
2023-11-21T06:08:02.974Z,65.77
2023-11-21T06:10:29.634Z,65.57
2023-11-21T06:12:59.739Z,65.92
2023-11-21T06:15:27.588Z,65.69
2023-11-21T06:17:57.988Z,65.53
2023-11-21T06:20:24.643Z,65.89
2023-11-21T06:22:50.879Z,65.72
2023-11-21T06:25:17.032Z,65.78
2023-11-21T06:27:43.311Z,65.81
2023-11-21T06:30:09.522Z,65.89
2023-11-21T06:32:39.879Z,65.60
2023-11-21T06:35:06.115Z,65.77
2023-11-21T06:37:34.339Z,65.65
2023-11-21T06:40:00.526Z,65.71
2023-11-21T06:42:26.784Z,65.91
2023-11-21T06:44:55.380Z,65.65
2023-11-21T06:47:26.440Z,65.91
2023-11-21T06:49:53.997Z,65.67
2023-11-21T06:52:21.575Z,65.89
2023-11-21T06:54:50.498Z,65.74
2023-11-21T06:57:17.055Z,65.62
2023-11-21T06:59:43.323Z,65.87
2023-11-21T07:02:10.220Z,65.73
2023-11-21T07:04:36.858Z,65.92
2023-11-21T07:07:03.170Z,65.59
2023-11-21T07:09:29.325Z,65.63
2023-11-21T07:11:55.474Z,65.73
2023-11-21T07:14:21.597Z,65.84
2023-11-21T07:16:47.786Z,66.00
2023-11-21T07:19:19.343Z,65.99
2023-11-21T07:21:51.474Z,65.71
2023-11-21T07:24:19.413Z,66.00
2023-11-21T07:26:45.586Z,65.81
2023-11-21T07:29:11.730Z,65.96
2023-11-21T07:31:38.073Z,65.96
2023-11-21T07:34:04.259Z,65.94
2023-11-21T07:36:30.390Z,65.95
2023-11-21T07:38:56.573Z,65.97
2023-11-21T07:41:28.473Z,66.14
2023-11-21T07:43:57.696Z,65.63
2023-11-21T07:46:24.006Z,65.82
2023-11-21T07:48:50.193Z,66.14
2023-11-21T07:51:16.363Z,65.72
2023-11-21T07:53:42.493Z,65.81
2023-11-21T07:56:08.639Z,65.61
2023-11-21T07:58:34.901Z,65.71
2023-11-21T08:01:01.084Z,65.75
2023-11-21T08:03:27.357Z,65.88
2023-11-21T08:05:53.656Z,65.93
2023-11-21T08:08:19.860Z,65.95
2023-11-21T08:10:46.031Z,65.76
2023-11-21T08:13:12.203Z,65.62
2023-11-21T08:15:38.371Z,65.69
2023-11-21T08:18:04.559Z,65.77
2023-11-21T08:20:30.861Z,65.95
2023-11-21T08:22:57.042Z,65.86
2023-11-21T08:25:23.295Z,65.95
2023-11-21T08:27:49.649Z,65.79
2023-11-21T08:30:15.807Z,65.77
2023-11-21T08:32:41.993Z,65.80
2023-11-21T08:35:08.353Z,65.78
2023-11-21T08:37:34.609Z,65.92
2023-11-21T08:40:00.768Z,65.88
2023-11-21T08:42:26.931Z,65.93
2023-11-21T08:44:53.069Z,65.63
2023-11-21T08:47:19.204Z,65.73
2023-11-21T08:49:45.396Z,65.99
2023-11-21T08:52:11.545Z,65.69
2023-11-21T08:54:37.671Z,66.05
2023-11-21T08:57:03.823Z,65.81
2023-11-21T08:59:29.970Z,65.97
2023-11-21T09:01:56.189Z,66.02
2023-11-21T09:04:22.378Z,65.82
2023-11-21T09:06:48.514Z,65.79
2023-11-21T09:09:14.664Z,65.81
2023-11-21T09:11:41.214Z,65.82
2023-11-21T09:14:07.425Z,65.83
2023-11-21T09:16:33.679Z,66.05
2023-11-21T09:19:00.242Z,65.80
2023-11-21T09:21:27.782Z,66.17
2023-11-21T09:23:53.943Z,65.93
2023-11-21T09:26:20.091Z,66.05
2023-11-21T09:28:46.242Z,66.06
2023-11-21T09:31:12.399Z,65.69
2023-11-21T09:33:38.567Z,65.96
2023-11-21T09:36:04.713Z,65.97
2023-11-21T09:38:30.866Z,65.83
2023-11-21T09:40:57.067Z,65.81
2023-11-21T09:43:23.259Z,65.89
2023-11-21T09:45:49.518Z,65.93
2023-11-21T09:48:15.726Z,66.00
2023-11-21T09:50:41.878Z,66.10
2023-11-21T09:53:08.101Z,65.76
2023-11-21T09:55:34.292Z,66.25
2023-11-21T09:58:00.428Z,66.15
2023-11-21T10:00:26.593Z,65.90
2023-11-21T10:02:52.896Z,65.79
2023-11-21T10:05:19.091Z,65.88
2023-11-21T10:07:45.289Z,66.10
2023-11-21T10:10:11.482Z,65.92
2023-11-21T10:12:37.626Z,66.15
2023-11-21T10:15:03.769Z,65.85
2023-11-21T10:17:29.999Z,66.06
2023-11-21T10:19:56.174Z,66.18
2023-11-21T10:24:53.880Z,65.81
2023-11-21T10:27:20.562Z,65.85
2023-11-21T10:29:46.717Z,65.87
2023-11-21T10:32:12.904Z,66.01
2023-11-21T10:34:39.122Z,65.76
2023-11-21T10:37:05.297Z,65.88
2023-11-21T10:39:31.450Z,66.00
2023-11-21T10:41:57.646Z,65.96
2023-11-21T10:44:23.902Z,65.77
2023-11-21T10:46:50.205Z,65.89
2023-11-21T10:49:16.367Z,66.04
2023-11-21T10:51:42.539Z,65.90
2023-11-21T10:54:08.708Z,66.03
2023-11-21T10:56:34.851Z,65.95
2023-11-21T10:59:01.730Z,65.86
2023-11-21T11:01:28.147Z,66.07
2023-11-21T11:03:54.454Z,66.15
2023-11-21T11:06:20.629Z,66.07
2023-11-21T11:08:46.823Z,66.20
2023-11-21T11:11:13.028Z,65.85
2023-11-21T11:13:39.233Z,65.85
2023-11-21T11:16:05.963Z,66.06
2023-11-21T11:18:32.239Z,66.05
2023-11-21T11:20:58.422Z,65.85
2023-11-21T11:23:24.576Z,65.95
2023-11-21T11:25:50.781Z,66.17
2023-11-21T11:28:16.942Z,65.96
2023-11-21T11:30:43.115Z,65.84
2023-11-21T11:33:09.285Z,66.06
2023-11-21T11:35:35.473Z,66.09
2023-11-21T11:38:01.719Z,65.90
2023-11-21T11:40:27.902Z,65.84
2023-11-21T11:42:54.037Z,66.05
2023-11-21T11:45:20.244Z,65.87
2023-11-21T11:47:46.463Z,66.06
2023-11-21T11:50:12.726Z,65.92
2023-11-21T11:52:38.913Z,65.84
2023-11-21T11:55:05.092Z,65.90
2023-11-21T11:57:31.254Z,66.01
2023-11-21T11:59:57.844Z,66.14
2023-11-21T12:02:24.171Z,66.21
2023-11-21T12:04:50.455Z,66.06
2023-11-21T12:07:16.685Z,65.93
2023-11-21T12:09:42.836Z,65.90
2023-11-21T12:12:08.989Z,65.82
2023-11-21T12:14:35.148Z,65.97
2023-11-21T12:17:01.311Z,66.11
2023-11-21T12:19:27.487Z,65.96
2023-11-21T12:21:54.125Z,65.92
2023-11-21T12:24:20.262Z,66.01
2023-11-21T12:26:46.398Z,66.20
2023-11-21T12:29:12.578Z,65.67
2023-11-21T12:31:38.802Z,65.98
2023-11-21T12:34:05.007Z,66.17
2023-11-21T12:36:31.200Z,65.96
2023-11-21T12:38:57.343Z,66.11
2023-11-21T12:41:23.497Z,66.08
2023-11-21T12:43:49.680Z,65.70
2023-11-21T12:46:16.187Z,66.08
2023-11-21T12:48:42.353Z,65.76
2023-11-21T12:51:08.541Z,66.00
2023-11-21T12:53:34.745Z,66.11
2023-11-21T12:56:01.093Z,65.88
2023-11-21T12:58:27.304Z,66.13
2023-11-21T13:00:53.427Z,66.01
2023-11-21T13:03:20.055Z,66.11
2023-11-21T13:05:48.606Z,66.17
2023-11-21T13:08:15.526Z,66.05
2023-11-21T13:10:41.670Z,66.13
2023-11-21T13:13:07.851Z,65.99
2023-11-21T13:15:34.112Z,65.92
2023-11-21T13:18:00.343Z,65.92
2023-11-21T13:20:26.642Z,66.03
2023-11-21T13:22:52.922Z,66.29
2023-11-21T13:25:19.106Z,66.14
2023-11-21T13:27:45.292Z,66.06
2023-11-21T13:30:11.511Z,66.07
2023-11-21T13:32:37.655Z,65.95
2023-11-21T13:35:03.820Z,66.20
2023-11-21T13:37:29.999Z,65.99
2023-11-21T13:39:56.154Z,65.92
2023-11-21T13:42:22.383Z,66.10
2023-11-21T13:44:48.519Z,66.19
2023-11-21T13:47:14.688Z,65.95
2023-11-21T13:49:40.908Z,66.02
2023-11-21T13:52:07.071Z,66.17
2023-11-21T13:54:33.314Z,66.10
2023-11-21T13:56:59.669Z,66.04
2023-11-21T13:59:25.832Z,65.93
2023-11-21T14:01:52.376Z,65.88
2023-11-21T14:04:18.620Z,66.11
2023-11-21T14:06:44.833Z,65.93
2023-11-21T14:09:10.976Z,65.92
2023-11-21T14:11:43.278Z,65.92
2023-11-21T14:14:12.656Z,66.12
2023-11-21T14:16:38.908Z,65.90
2023-11-21T14:19:05.103Z,65.96
2023-11-21T14:21:31.272Z,66.03
2023-11-21T14:23:57.508Z,66.09
2023-11-21T14:26:23.646Z,65.87
2023-11-21T14:28:49.796Z,66.04
2023-11-21T14:31:16.328Z,66.09
2023-11-21T14:33:42.508Z,65.84
2023-11-21T14:36:08.660Z,66.13
2023-11-21T14:38:34.815Z,66.16
2023-11-21T14:41:01.061Z,66.04
2023-11-21T14:43:27.220Z,66.11
2023-11-21T14:45:53.405Z,66.03
2023-11-21T14:48:19.578Z,66.15
2023-11-21T14:50:45.748Z,66.21
2023-11-21T14:53:12.015Z,66.15
2023-11-21T14:55:38.228Z,66.15
2023-11-21T14:58:04.381Z,65.95
2023-11-21T15:00:30.581Z,66.17
2023-11-21T15:02:56.837Z,66.05
2023-11-21T15:05:23.024Z,66.12
2023-11-21T15:07:49.274Z,65.99
2023-11-21T15:10:15.439Z,66.09
2023-11-21T15:12:41.566Z,65.97
2023-11-21T15:15:07.728Z,66.25
2023-11-21T15:17:34.088Z,65.97
2023-11-21T15:20:00.400Z,66.00
2023-11-21T15:22:26.617Z,66.06
2023-11-21T15:24:52.775Z,65.99
2023-11-21T15:27:18.923Z,66.24
2023-11-21T15:29:45.177Z,66.12
2023-11-21T15:32:11.453Z,65.96
2023-11-21T15:34:37.676Z,65.81
2023-11-21T15:37:03.877Z,66.15
2023-11-21T15:39:30.041Z,66.30
2023-11-21T15:41:56.181Z,65.86
2023-11-21T15:44:22.330Z,66.18
2023-11-21T15:46:48.576Z,66.09
2023-11-21T15:49:14.806Z,66.21
2023-11-21T15:51:40.979Z,66.17
2023-11-21T15:54:07.117Z,66.20
2023-11-21T15:56:33.240Z,66.26
2023-11-21T15:58:59.424Z,66.20
2023-11-21T16:01:25.609Z,66.17
2023-11-21T16:03:51.829Z,66.17
2023-11-21T16:06:18.115Z,66.03
2023-11-21T16:08:44.247Z,66.05
2023-11-21T16:11:10.506Z,66.21
2023-11-21T16:13:36.777Z,66.16
2023-11-21T16:16:02.948Z,66.06
2023-11-21T16:18:29.092Z,66.31
2023-11-21T16:20:55.244Z,66.16
2023-11-21T16:23:21.411Z,66.34
2023-11-21T16:25:47.653Z,66.19
2023-11-21T16:28:13.830Z,66.15
2023-11-21T16:30:40.011Z,66.03
2023-11-21T16:33:06.228Z,66.25
2023-11-21T16:35:32.887Z,66.02
2023-11-21T16:37:59.037Z,66.23
2023-11-21T16:40:25.176Z,65.96
2023-11-21T16:42:51.333Z,66.01
2023-11-21T16:45:17.529Z,66.06
2023-11-21T16:47:43.841Z,66.09
2023-11-21T16:50:10.107Z,66.07
2023-11-21T16:52:36.298Z,66.07
2023-11-21T16:55:02.454Z,66.50
2023-11-21T16:57:28.636Z,66.11
2023-11-21T16:59:54.821Z,66.09
2023-11-21T17:02:21.052Z,66.13
2023-11-21T17:04:47.301Z,66.08
2023-11-21T17:07:13.467Z,66.09
2023-11-21T17:09:39.605Z,65.95
2023-11-21T17:12:05.772Z,66.20
2023-11-21T17:14:31.921Z,66.01
2023-11-21T17:16:58.129Z,66.12
2023-11-21T17:19:24.356Z,66.04
2023-11-21T17:21:50.502Z,66.34
2023-11-21T17:24:16.655Z,66.29
2023-11-21T17:26:42.814Z,66.21
2023-11-21T17:29:09.053Z,66.20
2023-11-21T17:31:35.221Z,66.36
2023-11-21T17:34:01.424Z,66.32
2023-11-21T17:36:27.560Z,66.14
2023-11-21T17:38:53.745Z,66.36
2023-11-21T17:41:20.118Z,66.25
2023-11-21T17:43:46.284Z,66.21
2023-11-21T17:46:12.494Z,65.94
2023-11-21T17:48:38.730Z,66.27
2023-11-21T17:51:04.898Z,66.34
2023-11-21T17:53:31.055Z,66.24
2023-11-21T17:55:57.288Z,66.03
2023-11-21T17:58:23.474Z,66.30
2023-11-21T18:00:49.707Z,66.02
2023-11-21T18:03:15.924Z,66.11
2023-11-21T18:05:42.135Z,65.90
2023-11-21T18:08:09.536Z,66.14
2023-11-21T18:10:35.826Z,66.05
2023-11-21T18:13:01.980Z,66.21
2023-11-21T18:15:28.127Z,66.12
2023-11-21T18:17:54.289Z,66.19
2023-11-21T18:20:20.467Z,65.99
2023-11-21T18:22:46.661Z,66.04
2023-11-21T18:25:12.823Z,66.15
2023-11-21T18:27:38.964Z,66.26
2023-11-21T18:30:05.133Z,66.21
2023-11-21T18:32:31.377Z,66.34
2023-11-21T18:34:57.659Z,66.38
2023-11-21T18:37:23.830Z,66.22
2023-11-21T18:39:49.977Z,66.20
2023-11-21T18:42:16.115Z,66.11
2023-11-21T18:44:51.654Z,66.15
2023-11-21T18:47:23.550Z,66.06
2023-11-21T18:49:49.752Z,66.36
2023-11-21T18:52:15.909Z,66.19
2023-11-21T18:54:42.055Z,66.22
2023-11-21T18:57:08.248Z,66.23
2023-11-21T18:59:34.403Z,66.39
2023-11-21T19:02:00.639Z,66.12
2023-11-21T19:04:26.839Z,66.34
2023-11-21T19:06:52.981Z,66.40
2023-11-21T19:09:19.165Z,66.29
2023-11-21T19:11:45.388Z,66.11
2023-11-21T19:14:11.623Z,66.24
2023-11-21T19:16:37.810Z,66.04
2023-11-21T19:19:04.019Z,66.27
2023-11-21T19:21:30.204Z,66.25
2023-11-21T19:23:56.355Z,66.08
2023-11-21T19:26:22.604Z,65.98
2023-11-21T19:28:48.784Z,66.26
2023-11-21T19:31:14.952Z,66.01
2023-11-21T19:33:41.280Z,66.16
2023-11-21T19:36:07.467Z,66.19
2023-11-21T19:38:33.621Z,66.52
2023-11-21T19:40:59.884Z,66.13
2023-11-21T19:43:26.034Z,66.35
2023-11-21T19:45:52.254Z,66.43
2023-11-21T19:48:18.431Z,66.23
2023-11-21T19:50:44.588Z,66.38
2023-11-21T19:53:10.804Z,66.14
2023-11-21T19:55:37.015Z,66.16
2023-11-21T19:58:03.175Z,66.01
2023-11-21T20:00:29.378Z,66.14
2023-11-21T20:02:55.617Z,66.32
2023-11-21T20:05:21.827Z,66.37
2023-11-21T20:07:48.040Z,66.17
2023-11-21T20:10:14.183Z,66.22
2023-11-21T20:12:40.321Z,66.25
2023-11-21T20:15:06.472Z,66.24
2023-11-21T20:17:32.664Z,66.33
2023-11-21T20:19:58.892Z,66.31
2023-11-21T20:22:25.072Z,66.25
2023-11-21T20:24:51.200Z,66.61
2023-11-21T20:27:17.377Z,66.41
2023-11-21T20:29:43.540Z,66.23
2023-11-21T20:32:09.817Z,65.91
2023-11-21T20:34:35.998Z,66.09
2023-11-21T20:37:02.135Z,66.36
2023-11-21T20:39:28.283Z,66.51
2023-11-21T20:41:54.424Z,66.27
2023-11-21T20:44:20.684Z,66.20
2023-11-21T20:46:46.959Z,66.23
2023-11-21T20:49:13.250Z,66.30
2023-11-21T20:51:39.484Z,66.45
2023-11-21T20:54:05.644Z,66.39
2023-11-21T20:56:31.775Z,66.29
2023-11-21T20:58:57.986Z,66.28
2023-11-21T21:01:24.184Z,66.13
2023-11-21T21:03:50.395Z,66.46
2023-11-21T21:06:17.722Z,66.12
2023-11-21T21:08:44.433Z,66.01
2023-11-21T21:11:10.649Z,66.11
2023-11-21T21:13:36.849Z,66.20
2023-11-21T21:16:03.003Z,66.40
2023-11-21T21:18:29.133Z,66.41
2023-11-21T21:20:55.304Z,66.41
2023-11-21T21:23:21.508Z,66.44
2023-11-21T21:25:47.712Z,66.41
2023-11-21T21:28:13.888Z,66.48
2023-11-21T21:30:40.019Z,66.11
2023-11-21T21:33:06.199Z,66.16
2023-11-21T21:35:32.530Z,66.26
2023-11-21T21:37:58.807Z,66.57
2023-11-21T21:40:24.986Z,66.17
2023-11-21T21:42:51.168Z,66.34
2023-11-21T21:45:17.311Z,66.42
2023-11-21T21:47:43.531Z,66.25
2023-11-21T21:50:10.087Z,66.21
2023-11-21T21:52:36.270Z,66.26
2023-11-21T21:55:02.425Z,66.34
2023-11-21T21:57:28.581Z,66.40
2023-11-21T21:59:54.718Z,66.27
2023-11-21T22:02:21.015Z,66.23
2023-11-21T22:04:47.211Z,66.40
2023-11-21T22:07:13.336Z,66.29
2023-11-21T22:09:39.498Z,66.21
2023-11-21T22:12:05.647Z,66.59
2023-11-21T22:14:31.837Z,66.23
2023-11-21T22:16:58.076Z,66.38
2023-11-21T22:19:24.235Z,66.39
2023-11-21T22:21:50.408Z,66.42
2023-11-21T22:24:16.546Z,66.44
2023-11-21T22:26:42.719Z,66.29
2023-11-21T22:29:08.956Z,66.31
2023-11-21T22:31:35.243Z,66.31
2023-11-21T22:34:01.428Z,66.13
2023-11-21T22:36:27.574Z,66.41
2023-11-21T22:38:53.721Z,66.42
2023-11-21T22:41:19.895Z,66.48
2023-11-21T22:43:46.059Z,66.42
2023-11-21T22:46:12.262Z,66.15
2023-11-21T22:48:38.519Z,66.14
2023-11-21T22:51:04.726Z,66.24
2023-11-21T22:53:30.967Z,66.15
2023-11-21T22:55:57.395Z,66.47
2023-11-21T22:58:23.547Z,66.65
2023-11-21T23:00:49.669Z,66.42
2023-11-21T23:03:16.078Z,66.40
2023-11-21T23:05:42.381Z,66.24
2023-11-21T23:08:08.574Z,66.28
2023-11-21T23:10:34.776Z,66.24
2023-11-21T23:13:00.922Z,66.32
2023-11-21T23:15:27.057Z,66.21
2023-11-21T23:17:53.250Z,66.30
2023-11-21T23:20:19.416Z,66.46
2023-11-21T23:22:45.583Z,66.28
2023-11-21T23:25:11.732Z,66.46
2023-11-21T23:27:37.961Z,66.32
2023-11-21T23:30:04.131Z,66.22
2023-11-21T23:32:30.436Z,66.46
2023-11-21T23:34:56.723Z,66.17
2023-11-21T23:37:22.863Z,66.11
2023-11-21T23:39:49.014Z,66.47
2023-11-21T23:42:15.160Z,66.35
2023-11-21T23:44:41.306Z,66.46
2023-11-21T23:47:07.497Z,66.29
2023-11-21T23:49:33.652Z,66.42
2023-11-21T23:51:59.793Z,66.42
2023-11-21T23:54:25.962Z,66.23
2023-11-21T23:56:52.174Z,66.29
2023-11-21T23:59:18.465Z,66.37
